ILG Airport (New Castle) Information

FAA: ILG - ICAO: KILG

ILG Airport Location

State Delaware
County New Castle
City Wilmington
ILG Airport is 4 miles south of Wilmington, DE.
Latitude 39-40-43.4000N
Longitude 075-36-23.9000W
Elevation 79ft

KILG Airport METARs

METAR KILG 200451Z AUTO 25006KT 10SM CLR 12/08 A3006 RMK AO2 SLP179 T01220078 402110061 $
Altimeter 30.06"
Temperature 12.2°C (54.0°F)
Wind 250° at 6KT
Clouds Skies are clear.
Visibility 10.0mi
Time observed: 2021-10-20T04:51:00Z

ILG Airport Details

Status Operational
Activation May 1943
Ownership Public
Usage Public
Chart WASHINGTON
ATC on-site Yes
Beacon schedule sunset-sunrise
Beacon color clear green

ILG Airport Contacts

Owner DELAWARE RIVER & BAY AUTHORITY
Owner address 151 N. DUPONT HIGHWAY, NEW CASTLE, DE 19720-0071
Owner phone (302) 571-6445
Manager DAVID & NANCY CANNAVO
Manager address 1270 CALDWELL CORNER RD, TOWNSEND, DE 19734
Manager phone 302-378-1396

ILG Airport (New Castle) Radio Frequencies

ILG (Airport) Radio Frequencies

UNICOM 122.95
Common traffic advisory frequency (CTAF) 126